createdAt,value
2023-02-17T00:03:24.931Z,96.64
2023-02-17T00:08:47.091Z,97.21
2023-02-17T00:14:12.762Z,96.78
2023-02-17T00:19:34.630Z,96.46
2023-02-17T00:24:56.659Z,96.73
2023-02-17T00:30:18.773Z,95.29
2023-02-17T00:35:40.862Z,95.63
2023-02-17T00:41:02.809Z,95.39
2023-02-17T00:46:26.182Z,95.09
2023-02-17T00:51:48.736Z,94.33
2023-02-17T00:57:11.020Z,94.90
2023-02-17T01:02:33.514Z,93.98
2023-02-17T01:07:56.121Z,94.01
2023-02-17T01:13:19.500Z,93.36
2023-02-17T01:18:41.358Z,93.29
2023-02-17T01:24:06.029Z,93.85
2023-02-17T01:29:27.979Z,93.27
2023-02-17T01:34:49.819Z,92.95
2023-02-17T01:40:14.037Z,92.98
2023-02-17T01:45:41.628Z,91.62
2023-02-17T01:51:10.958Z,91.99
2023-02-17T01:56:35.522Z,91.26
2023-02-17T02:02:00.535Z,92.19
2023-02-17T02:07:43.961Z,90.59
2023-02-17T02:13:07.597Z,91.68
2023-02-17T02:18:59.907Z,91.43
2023-02-17T02:24:44.290Z,91.37
2023-02-17T02:30:21.347Z,91.34
2023-02-17T02:35:56.340Z,91.25
2023-02-17T02:41:24.032Z,91.21
2023-02-17T02:46:45.894Z,91.51
2023-02-17T02:52:23.505Z,91.22
2023-02-17T02:58:06.227Z,91.45
2023-02-17T03:04:09.318Z,92.10
2023-02-17T03:09:31.894Z,93.45
2023-02-17T03:15:06.161Z,93.13
2023-02-17T03:20:32.877Z,92.85
2023-02-17T03:25:54.812Z,93.71
2023-02-17T03:31:17.066Z,94.39
2023-02-17T03:36:39.017Z,94.81
2023-02-17T03:42:02.243Z,94.48
2023-02-17T03:47:24.098Z,96.76
2023-02-17T03:52:46.095Z,97.25
2023-02-17T03:58:08.181Z,98.51
2023-02-17T04:03:30.056Z,99.02
2023-02-17T04:08:51.990Z,100.00
2023-02-17T04:14:13.891Z,100.00
2023-02-17T04:19:35.801Z,100.00
2023-02-17T04:24:57.688Z,100.00
2023-02-17T04:30:20.219Z,100.00
2023-02-17T04:35:42.632Z,100.00
2023-02-17T04:41:05.125Z,100.00
2023-02-17T04:46:27.103Z,100.00
2023-02-17T04:51:48.984Z,100.00
2023-02-17T04:57:10.899Z,100.00
2023-02-17T05:02:32.992Z,100.00
2023-02-17T05:07:54.826Z,100.00
2023-02-17T05:13:16.769Z,100.00
2023-02-17T05:18:38.683Z,100.00
2023-02-17T05:24:00.477Z,100.00
2023-02-17T05:29:22.327Z,100.00
2023-02-17T05:34:44.335Z,100.00
2023-02-17T05:40:07.145Z,100.00
2023-02-17T05:45:29.002Z,100.00
2023-02-17T05:50:50.886Z,100.00
2023-02-17T05:56:12.754Z,100.00
2023-02-17T06:01:37.073Z,100.00
2023-02-17T06:06:59.210Z,100.00
2023-02-17T06:12:21.449Z,100.00
2023-02-17T06:17:43.360Z,100.00
2023-02-17T06:23:05.349Z,100.00
2023-02-17T06:28:28.327Z,100.00
2023-02-17T06:33:50.190Z,100.00
2023-02-17T06:39:12.064Z,100.00
2023-02-17T06:44:33.908Z,100.00
2023-02-17T06:49:55.801Z,100.00
2023-02-17T06:55:17.691Z,100.00
2023-02-17T07:00:39.531Z,100.00
2023-02-17T07:06:01.382Z,100.00
2023-02-17T07:11:23.354Z,100.00
2023-02-17T07:16:45.246Z,100.00
2023-02-17T07:22:07.215Z,100.00
2023-02-17T07:27:29.078Z,100.00
2023-02-17T07:32:50.962Z,100.00
2023-02-17T07:38:12.923Z,100.00
2023-02-17T07:43:35.021Z,100.00
2023-02-17T07:48:57.863Z,98.08
2023-02-17T07:54:19.778Z,97.57
2023-02-17T07:59:41.602Z,97.96
2023-02-17T08:05:03.515Z,97.41
2023-02-17T08:10:25.351Z,95.70
2023-02-17T08:15:47.247Z,94.85
2023-02-17T08:21:09.086Z,94.49
2023-02-17T08:26:31.106Z,93.52
2023-02-17T08:31:53.502Z,92.66
2023-02-17T08:37:15.601Z,92.34
2023-02-17T08:42:37.429Z,91.65
2023-02-17T08:47:59.257Z,91.33
2023-02-17T08:53:21.152Z,90.45
2023-02-17T08:58:43.022Z,90.86
2023-02-17T09:04:08.326Z,89.23
2023-02-17T09:09:30.205Z,88.57
2023-02-17T09:14:52.086Z,88.47
2023-02-17T09:20:24.250Z,88.80
2023-02-17T09:25:47.281Z,88.29
2023-02-17T09:31:11.823Z,89.21
2023-02-17T09:36:38.917Z,89.76
2023-02-17T09:42:00.774Z,91.21
2023-02-17T09:47:27.007Z,90.66
2023-02-17T09:53:11.537Z,91.76
2023-02-17T09:58:40.640Z,92.37
2023-02-17T10:04:26.101Z,94.02
2023-02-17T10:09:52.469Z,95.32
2023-02-17T10:15:19.112Z,96.23
2023-02-17T10:20:47.505Z,95.49
2023-02-17T10:26:20.714Z,97.09
2023-02-17T10:31:47.079Z,96.43
2023-02-17T10:37:11.680Z,97.66
2023-02-17T10:42:38.851Z,98.81
2023-02-17T10:48:12.759Z,96.74
2023-02-17T10:53:39.752Z,97.77
2023-02-17T10:59:19.179Z,98.31
2023-02-17T11:04:43.670Z,100.00
2023-02-17T11:10:23.147Z,99.70
2023-02-17T11:15:47.628Z,99.05
2023-02-17T11:21:11.313Z,100.00
2023-02-17T11:26:35.518Z,100.00
2023-02-17T11:31:59.187Z,99.42
2023-02-17T11:37:23.367Z,100.00
2023-02-17T11:42:56.133Z,100.00
2023-02-17T11:48:57.556Z,100.00
2023-02-17T11:54:25.231Z,100.00
2023-02-17T12:00:27.208Z,100.00
2023-02-17T12:06:07.747Z,100.00
2023-02-17T12:11:43.880Z,100.00
2023-02-17T12:17:24.340Z,100.00
2023-02-17T12:23:13.383Z,100.00
2023-02-17T12:28:53.630Z,100.00
2023-02-17T12:34:18.372Z,100.00
2023-02-17T12:39:50.048Z,100.00
2023-02-17T12:45:14.885Z,100.00
2023-02-17T12:50:54.748Z,100.00
2023-02-17T12:56:25.352Z,100.00
2023-02-17T13:01:59.059Z,100.00
2023-02-17T13:07:36.065Z,100.00
2023-02-17T13:13:11.949Z,100.00
2023-02-17T13:18:36.620Z,100.00
2023-02-17T13:24:01.043Z,100.00
2023-02-17T13:29:25.841Z,100.00
2023-02-17T13:35:00.653Z,100.00
2023-02-17T13:40:22.448Z,100.00
2023-02-17T13:46:07.310Z,100.00
2023-02-17T13:51:30.877Z,100.00
2023-02-17T13:56:53.696Z,100.00
2023-02-17T14:02:35.155Z,100.00
2023-02-17T14:08:06.540Z,100.00
2023-02-17T14:13:29.286Z,100.00
2023-02-17T14:19:08.942Z,100.00
2023-02-17T14:24:37.621Z,100.00
2023-02-17T14:29:59.580Z,100.00
2023-02-17T14:35:23.567Z,100.00
2023-02-17T14:40:45.474Z,100.00
2023-02-17T14:46:07.625Z,100.00
2023-02-17T14:51:36.537Z,100.00
2023-02-17T14:57:11.843Z,100.00
2023-02-17T15:02:37.474Z,100.00
2023-02-17T15:08:01.062Z,100.00
2023-02-17T15:13:22.940Z,100.00
2023-02-17T15:18:44.781Z,100.00
2023-02-17T15:24:15.837Z,100.00
2023-02-17T15:29:37.700Z,100.00
2023-02-17T15:34:59.850Z,100.00
2023-02-17T15:40:24.347Z,100.00
2023-02-17T15:45:46.522Z,100.00
2023-02-17T15:51:11.628Z,100.00
2023-02-17T15:56:45.387Z,100.00
2023-02-17T16:02:21.459Z,100.00
2023-02-17T16:07:43.902Z,100.00
2023-02-17T16:13:05.872Z,100.00
2023-02-17T16:18:27.692Z,100.00
2023-02-17T16:23:49.804Z,100.00
2023-02-17T16:29:21.961Z,100.00
2023-02-17T16:34:44.005Z,100.00
2023-02-17T16:40:15.525Z,100.00
2023-02-17T16:45:37.506Z,100.00
2023-02-17T16:50:59.538Z,100.00
2023-02-17T16:56:25.268Z,100.00
2023-02-17T17:01:47.817Z,100.00
2023-02-17T17:07:14.023Z,100.00
2023-02-17T17:12:35.874Z,100.00
2023-02-17T17:17:58.991Z,100.00
2023-02-17T17:23:20.791Z,100.00
2023-02-17T17:28:42.657Z,100.00
2023-02-17T17:34:04.501Z,100.00
2023-02-17T17:39:26.432Z,100.00
2023-02-17T17:44:48.293Z,100.00
2023-02-17T17:50:16.809Z,100.00
2023-02-17T17:55:38.668Z,100.00
2023-02-17T18:01:00.728Z,100.00
2023-02-17T18:06:47.399Z,100.00
2023-02-17T18:12:16.001Z,100.00
2023-02-17T18:17:40.502Z,100.00
2023-02-17T18:23:02.554Z,100.00
2023-02-17T18:28:24.448Z,100.00
2023-02-17T18:33:46.463Z,100.00
2023-02-17T18:39:08.356Z,100.00
2023-02-17T18:44:30.193Z,100.00
2023-02-17T18:49:52.245Z,100.00
2023-02-17T18:55:14.903Z,100.00
2023-02-17T19:00:36.751Z,100.00
2023-02-17T19:05:58.703Z,100.00
2023-02-17T19:11:22.460Z,100.00
2023-02-17T19:16:44.347Z,100.00
2023-02-17T19:22:07.226Z,100.00
2023-02-17T19:27:29.388Z,100.00
2023-02-17T19:32:51.218Z,100.00
2023-02-17T19:38:13.095Z,100.00
2023-02-17T19:43:35.686Z,100.00
2023-02-17T19:48:57.495Z,100.00
2023-02-17T19:54:19.401Z,100.00
2023-02-17T19:59:41.295Z,100.00
2023-02-17T20:05:03.999Z,100.00
2023-02-17T20:10:25.835Z,100.00
2023-02-17T20:15:47.730Z,100.00
2023-02-17T20:21:11.481Z,100.00
2023-02-17T20:26:38.167Z,100.00
2023-02-17T20:32:00.663Z,100.00
2023-02-17T20:37:22.634Z,100.00
2023-02-17T20:42:44.519Z,100.00
2023-02-17T20:48:07.048Z,100.00
2023-02-17T20:53:28.863Z,100.00
2023-02-17T20:58:51.933Z,100.00
2023-02-17T21:04:13.894Z,100.00
2023-02-17T21:09:35.746Z,100.00
2023-02-17T21:14:57.604Z,100.00
2023-02-17T21:20:21.681Z,100.00
2023-02-17T21:25:45.516Z,100.00
2023-02-17T21:31:07.962Z,100.00
2023-02-17T21:36:30.131Z,100.00
2023-02-17T21:41:51.990Z,100.00
2023-02-17T21:47:14.429Z,100.00
2023-02-17T21:52:36.302Z,100.00
2023-02-17T21:57:58.703Z,100.00
2023-02-17T22:03:20.647Z,100.00
2023-02-17T22:08:42.567Z,100.00
2023-02-17T22:14:07.432Z,100.00
2023-02-17T22:19:31.369Z,100.00
2023-02-17T22:24:53.468Z,100.00
2023-02-17T22:30:15.696Z,100.00
2023-02-17T22:35:37.568Z,100.00
2023-02-17T22:41:00.009Z,100.00
2023-02-17T22:46:24.916Z,100.00
2023-02-17T22:51:46.822Z,100.00
2023-02-17T22:57:08.671Z,100.00
2023-02-17T23:02:34.265Z,100.00
2023-02-17T23:07:56.180Z,100.00
2023-02-17T23:13:18.096Z,99.11
2023-02-17T23:18:40.418Z,97.60
2023-02-17T23:24:03.090Z,95.96
2023-02-17T23:29:24.937Z,96.67
2023-02-17T23:34:46.766Z,97.54
2023-02-17T23:40:10.176Z,96.15
2023-02-17T23:45:33.031Z,96.00
2023-02-17T23:50:59.326Z,94.74
2023-02-17T23:56:27.788Z,91.61
